sensor_id;sensor_type;location;lat;lon;timestamp;P1;durP1;ratioP1;P2;durP2;ratioP2
12986;SDS011;58897;51.960;5.582;2024-03-23T00:55:41;9.23;;;5.00;;
12986;SDS011;58897;51.960;5.582;2024-03-23T00:58:07;6.90;;;3.28;;
12986;SDS011;58897;51.960;5.582;2024-03-23T01:00:33;9.20;;;3.53;;
12986;SDS011;58897;51.960;5.582;2024-03-23T01:02:59;8.60;;;3.58;;
12986;SDS011;58897;51.960;5.582;2024-03-23T01:05:25;10.20;;;4.45;;
12986;SDS011;58897;51.960;5.582;2024-03-23T01:07:50;9.50;;;4.07;;
12986;SDS011;58897;51.960;5.582;2024-03-23T01:10:16;11.68;;;4.40;;
12986;SDS011;58897;51.960;5.582;2024-03-23T01:12:41;8.60;;;4.00;;
12986;SDS011;58897;51.960;5.582;2024-03-23T01:15:07;7.68;;;3.97;;
12986;SDS011;58897;51.960;5.582;2024-03-23T01:17:33;9.32;;;3.60;;
12986;SDS011;58897;51.960;5.582;2024-03-23T01:19:59;5.85;;;3.20;;
12986;SDS011;58897;51.960;5.582;2024-03-23T01:22:25;8.80;;;3.72;;
12986;SDS011;58897;51.960;5.582;2024-03-23T01:24:50;7.47;;;4.07;;
12986;SDS011;58897;51.960;5.582;2024-03-23T01:27:16;10.38;;;3.72;;
12986;SDS011;58897;51.960;5.582;2024-03-23T01:29:41;14.00;;;4.53;;
12986;SDS011;58897;51.960;5.582;2024-03-23T01:32:07;13.00;;;4.55;;
12986;SDS011;58897;51.960;5.582;2024-03-23T01:34:33;10.02;;;5.07;;
12986;SDS011;58897;51.960;5.582;2024-03-23T01:36:59;7.13;;;4.30;;
12986;SDS011;58897;51.960;5.582;2024-03-23T01:39:24;9.65;;;4.32;;
12986;SDS011;58897;51.960;5.582;2024-03-23T01:41:50;6.53;;;3.85;;
12986;SDS011;58897;51.960;5.582;2024-03-23T01:44:16;6.30;;;3.60;;
12986;SDS011;58897;51.960;5.582;2024-03-23T01:49:09;11.77;;;4.70;;
12986;SDS011;58897;51.960;5.582;2024-03-23T01:54:01;9.23;;;4.90;;
12986;SDS011;58897;51.960;5.582;2024-03-23T01:56:32;11.35;;;4.60;;
12986;SDS011;58897;51.960;5.582;2024-03-23T01:59:03;12.80;;;4.68;;
12986;SDS011;58897;51.960;5.582;2024-03-23T02:01:30;8.57;;;4.63;;
12986;SDS011;58897;51.960;5.582;2024-03-23T02:03:57;11.52;;;4.82;;
12986;SDS011;58897;51.960;5.582;2024-03-23T02:06:23;12.77;;;4.70;;
12986;SDS011;58897;51.960;5.582;2024-03-23T02:08:49;8.80;;;4.10;;
12986;SDS011;58897;51.960;5.582;2024-03-23T02:11:15;12.20;;;5.75;;
12986;SDS011;58897;51.960;5.582;2024-03-23T02:13:41;8.38;;;4.68;;
12986;SDS011;58897;51.960;5.582;2024-03-23T02:16:06;13.70;;;5.30;;
12986;SDS011;58897;51.960;5.582;2024-03-23T02:18:33;10.57;;;4.93;;
12986;SDS011;58897;51.960;5.582;2024-03-23T02:20:59;14.57;;;5.18;;
12986;SDS011;58897;51.960;5.582;2024-03-23T02:23:24;12.70;;;5.47;;
12986;SDS011;58897;51.960;5.582;2024-03-23T02:25:50;14.38;;;4.68;;
12986;SDS011;58897;51.960;5.582;2024-03-23T02:28:16;15.55;;;5.57;;
12986;SDS011;58897;51.960;5.582;2024-03-23T02:30:45;10.05;;;4.35;;
12986;SDS011;58897;51.960;5.582;2024-03-23T02:33:10;9.00;;;5.20;;
12986;SDS011;58897;51.960;5.582;2024-03-23T02:35:36;9.98;;;5.25;;
12986;SDS011;58897;51.960;5.582;2024-03-23T02:38:02;9.90;;;4.65;;
12986;SDS011;58897;51.960;5.582;2024-03-23T02:40:28;11.90;;;5.38;;
12986;SDS011;58897;51.960;5.582;2024-03-23T02:42:54;9.90;;;4.45;;
12986;SDS011;58897;51.960;5.582;2024-03-23T02:45:21;18.42;;;5.75;;
12986;SDS011;58897;51.960;5.582;2024-03-23T02:47:47;6.25;;;4.10;;
12986;SDS011;58897;51.960;5.582;2024-03-23T02:50:20;10.68;;;4.35;;
12986;SDS011;58897;51.960;5.582;2024-03-23T02:52:46;10.68;;;4.03;;
12986;SDS011;58897;51.960;5.582;2024-03-23T02:55:12;10.82;;;4.35;;
12986;SDS011;58897;51.960;5.582;2024-03-23T02:57:38;9.00;;;4.00;;
12986;SDS011;58897;51.960;5.582;2024-03-23T03:00:04;10.23;;;3.63;;
12986;SDS011;58897;51.960;5.582;2024-03-23T03:02:31;13.23;;;4.70;;
12986;SDS011;58897;51.960;5.582;2024-03-23T03:04:57;9.63;;;4.95;;
12986;SDS011;58897;51.960;5.582;2024-03-23T03:07:23;13.02;;;5.07;;
12986;SDS011;58897;51.960;5.582;2024-03-23T03:09:48;9.48;;;4.70;;
12986;SDS011;58897;51.960;5.582;2024-03-23T03:12:14;12.07;;;5.75;;
12986;SDS011;58897;51.960;5.582;2024-03-23T03:14:40;9.65;;;4.45;;
12986;SDS011;58897;51.960;5.582;2024-03-23T03:17:05;10.32;;;4.82;;
12986;SDS011;58897;51.960;5.582;2024-03-23T03:19:31;9.32;;;3.63;;
12986;SDS011;58897;51.960;5.582;2024-03-23T03:21:57;7.95;;;3.92;;
12986;SDS011;58897;51.960;5.582;2024-03-23T03:24:23;8.10;;;3.67;;
12986;SDS011;58897;51.960;5.582;2024-03-23T03:26:48;10.00;;;4.13;;
12986;SDS011;58897;51.960;5.582;2024-03-23T03:29:15;8.18;;;3.80;;
12986;SDS011;58897;51.960;5.582;2024-03-23T03:34:07;6.70;;;3.50;;
12986;SDS011;58897;51.960;5.582;2024-03-23T03:36:33;5.80;;;2.50;;
12986;SDS011;58897;51.960;5.582;2024-03-23T03:38:59;5.20;;;3.72;;
12986;SDS011;58897;51.960;5.582;2024-03-23T03:41:25;8.90;;;3.63;;
12986;SDS011;58897;51.960;5.582;2024-03-23T03:43:50;4.95;;;3.15;;
12986;SDS011;58897;51.960;5.582;2024-03-23T03:46:16;9.55;;;3.70;;
12986;SDS011;58897;51.960;5.582;2024-03-23T03:48:42;6.57;;;3.35;;
12986;SDS011;58897;51.960;5.582;2024-03-23T03:51:10;9.73;;;3.30;;
12986;SDS011;58897;51.960;5.582;2024-03-23T03:53:36;13.30;;;3.13;;
12986;SDS011;58897;51.960;5.582;2024-03-23T03:56:02;6.25;;;2.53;;
12986;SDS011;58897;51.960;5.582;2024-03-23T03:58:28;6.55;;;2.72;;
12986;SDS011;58897;51.960;5.582;2024-03-23T04:00:53;7.25;;;3.55;;
12986;SDS011;58897;51.960;5.582;2024-03-23T04:03:19;3.83;;;2.40;;
12986;SDS011;58897;51.960;5.582;2024-03-23T04:05:52;10.85;;;3.22;;
12986;SDS011;58897;51.960;5.582;2024-03-23T04:08:18;6.65;;;2.85;;
12986;SDS011;58897;51.960;5.582;2024-03-23T04:10:44;8.80;;;2.67;;
12986;SDS011;58897;51.960;5.582;2024-03-23T04:15:36;4.50;;;2.45;;
12986;SDS011;58897;51.960;5.582;2024-03-23T04:18:02;5.07;;;2.67;;
12986;SDS011;58897;51.960;5.582;2024-03-23T04:20:28;3.53;;;2.15;;
12986;SDS011;58897;51.960;5.582;2024-03-23T04:22:53;11.18;;;2.55;;
12986;SDS011;58897;51.960;5.582;2024-03-23T04:25:19;5.50;;;2.40;;
12986;SDS011;58897;51.960;5.582;2024-03-23T04:27:45;7.05;;;2.65;;
12986;SDS011;58897;51.960;5.582;2024-03-23T04:30:11;7.35;;;2.00;;
12986;SDS011;58897;51.960;5.582;2024-03-23T04:32:37;4.53;;;2.30;;
12986;SDS011;58897;51.960;5.582;2024-03-23T04:35:03;8.98;;;2.67;;
12986;SDS011;58897;51.960;5.582;2024-03-23T04:37:35;4.00;;;2.22;;
12986;SDS011;58897;51.960;5.582;2024-03-23T04:40:02;4.85;;;2.63;;
12986;SDS011;58897;51.960;5.582;2024-03-23T04:42:28;6.40;;;2.10;;
12986;SDS011;58897;51.960;5.582;2024-03-23T04:44:54;7.28;;;2.63;;
12986;SDS011;58897;51.960;5.582;2024-03-23T04:47:20;9.15;;;2.33;;
12986;SDS011;58897;51.960;5.582;2024-03-23T04:49:46;4.18;;;1.85;;
12986;SDS011;58897;51.960;5.582;2024-03-23T04:52:11;4.07;;;2.22;;
12986;SDS011;58897;51.960;5.582;2024-03-23T04:54:38;4.28;;;2.20;;
12986;SDS011;58897;51.960;5.582;2024-03-23T04:57:05;3.40;;;1.75;;
12986;SDS011;58897;51.960;5.582;2024-03-23T04:59:31;4.53;;;1.92;;
12986;SDS011;58897;51.960;5.582;2024-03-23T05:01:58;5.45;;;1.98;;
12986;SDS011;58897;51.960;5.582;2024-03-23T05:04:25;9.45;;;2.13;;
12986;SDS011;58897;51.960;5.582;2024-03-23T05:06:51;5.85;;;2.40;;
12986;SDS011;58897;51.960;5.582;2024-03-23T05:09:16;9.73;;;2.53;;
12986;SDS011;58897;51.960;5.582;2024-03-23T05:11:42;5.28;;;3.00;;
12986;SDS011;58897;51.960;5.582;2024-03-23T05:14:07;8.40;;;2.65;;
12986;SDS011;58897;51.960;5.582;2024-03-23T05:16:33;6.32;;;2.60;;
12986;SDS011;58897;51.960;5.582;2024-03-23T05:18:59;6.15;;;2.00;;
12986;SDS011;58897;51.960;5.582;2024-03-23T05:21:25;6.15;;;2.45;;
12986;SDS011;58897;51.960;5.582;2024-03-23T05:23:50;10.23;;;2.17;;
12986;SDS011;58897;51.960;5.582;2024-03-23T05:26:16;6.55;;;1.77;;
12986;SDS011;58897;51.960;5.582;2024-03-23T05:28:42;5.95;;;2.50;;
12986;SDS011;58897;51.960;5.582;2024-03-23T05:31:09;3.00;;;1.80;;
12986;SDS011;58897;51.960;5.582;2024-03-23T05:33:38;9.77;;;2.47;;
12986;SDS011;58897;51.960;5.582;2024-03-23T05:36:03;2.55;;;1.73;;
12986;SDS011;58897;51.960;5.582;2024-03-23T05:38:30;5.97;;;1.50;;
12986;SDS011;58897;51.960;5.582;2024-03-23T05:40:59;10.88;;;2.42;;
12986;SDS011;58897;51.960;5.582;2024-03-23T05:43:26;5.05;;;2.08;;
12986;SDS011;58897;51.960;5.582;2024-03-23T05:48:21;3.83;;;1.65;;
12986;SDS011;58897;51.960;5.582;2024-03-23T05:50:48;3.80;;;1.85;;
12986;SDS011;58897;51.960;5.582;2024-03-23T05:53:15;5.53;;;2.13;;
12986;SDS011;58897;51.960;5.582;2024-03-23T05:55:41;6.85;;;1.70;;
12986;SDS011;58897;51.960;5.582;2024-03-23T05:58:07;6.35;;;1.98;;
12986;SDS011;58897;51.960;5.582;2024-03-23T06:00:32;10.85;;;2.92;;
12986;SDS011;58897;51.960;5.582;2024-03-23T06:02:58;9.40;;;2.28;;
12986;SDS011;58897;51.960;5.582;2024-03-23T06:05:24;9.95;;;2.40;;
12986;SDS011;58897;51.960;5.582;2024-03-23T06:07:49;4.38;;;2.28;;
12986;SDS011;58897;51.960;5.582;2024-03-23T06:10:15;2.67;;;1.70;;
12986;SDS011;58897;51.960;5.582;2024-03-23T06:15:07;6.65;;;2.33;;
12986;SDS011;58897;51.960;5.582;2024-03-23T06:17:38;7.53;;;2.08;;
12986;SDS011;58897;51.960;5.582;2024-03-23T06:20:04;5.82;;;2.08;;
12986;SDS011;58897;51.960;5.582;2024-03-23T06:22:31;6.38;;;1.90;;
12986;SDS011;58897;51.960;5.582;2024-03-23T06:24:57;3.85;;;1.92;;
12986;SDS011;58897;51.960;5.582;2024-03-23T06:27:23;3.78;;;1.48;;
12986;SDS011;58897;51.960;5.582;2024-03-23T06:29:49;7.82;;;2.22;;
12986;SDS011;58897;51.960;5.582;2024-03-23T06:32:14;2.83;;;1.67;;
12986;SDS011;58897;51.960;5.582;2024-03-23T06:34:43;2.85;;;1.60;;
12986;SDS011;58897;51.960;5.582;2024-03-23T06:37:10;3.13;;;1.33;;
12986;SDS011;58897;51.960;5.582;2024-03-23T06:39:36;4.72;;;1.80;;
12986;SDS011;58897;51.960;5.582;2024-03-23T06:42:02;8.77;;;2.85;;
12986;SDS011;58897;51.960;5.582;2024-03-23T06:44:28;6.80;;;2.58;;
12986;SDS011;58897;51.960;5.582;2024-03-23T06:46:54;4.20;;;1.67;;
12986;SDS011;58897;51.960;5.582;2024-03-23T06:49:20;5.65;;;2.15;;
12986;SDS011;58897;51.960;5.582;2024-03-23T06:51:46;6.00;;;2.05;;
12986;SDS011;58897;51.960;5.582;2024-03-23T06:54:11;5.65;;;2.45;;
12986;SDS011;58897;51.960;5.582;2024-03-23T06:56:37;5.82;;;2.53;;
12986;SDS011;58897;51.960;5.582;2024-03-23T06:59:03;4.88;;;1.90;;
12986;SDS011;58897;51.960;5.582;2024-03-23T07:01:29;6.07;;;2.03;;
12986;SDS011;58897;51.960;5.582;2024-03-23T07:03:55;8.43;;;3.05;;
12986;SDS011;58897;51.960;5.582;2024-03-23T07:06:21;6.72;;;1.85;;
12986;SDS011;58897;51.960;5.582;2024-03-23T07:08:47;10.77;;;2.85;;
12986;SDS011;58897;51.960;5.582;2024-03-23T07:11:18;7.45;;;2.40;;
12986;SDS011;58897;51.960;5.582;2024-03-23T07:13:45;4.97;;;1.88;;
12986;SDS011;58897;51.960;5.582;2024-03-23T07:16:11;4.43;;;1.83;;
12986;SDS011;58897;51.960;5.582;2024-03-23T07:18:36;9.25;;;2.50;;
12986;SDS011;58897;51.960;5.582;2024-03-23T07:21:02;4.30;;;2.08;;
12986;SDS011;58897;51.960;5.582;2024-03-23T07:23:28;4.53;;;2.08;;
12986;SDS011;58897;51.960;5.582;2024-03-23T07:28:23;7.32;;;2.25;;
12986;SDS011;58897;51.960;5.582;2024-03-23T07:30:59;5.63;;;3.08;;
12986;SDS011;58897;51.960;5.582;2024-03-23T07:33:36;9.18;;;2.85;;
12986;SDS011;58897;51.960;5.582;2024-03-23T07:36:03;10.27;;;2.60;;
12986;SDS011;58897;51.960;5.582;2024-03-23T07:43:37;3.72;;;2.05;;
12986;SDS011;58897;51.960;5.582;2024-03-23T07:46:03;6.32;;;1.90;;
12986;SDS011;58897;51.960;5.582;2024-03-23T07:48:29;3.40;;;1.55;;
12986;SDS011;58897;51.960;5.582;2024-03-23T07:53:31;11.48;;;2.45;;
12986;SDS011;58897;51.960;5.582;2024-03-23T07:58:24;4.30;;;1.50;;
12986;SDS011;58897;51.960;5.582;2024-03-23T08:00:54;6.55;;;2.13;;
12986;SDS011;58897;51.960;5.582;2024-03-23T08:03:21;5.78;;;2.58;;
12986;SDS011;58897;51.960;5.582;2024-03-23T08:05:47;5.35;;;2.90;;
12986;SDS011;58897;51.960;5.582;2024-03-23T08:08:12;4.97;;;2.30;;
12986;SDS011;58897;51.960;5.582;2024-03-23T08:10:48;6.25;;;2.03;;
12986;SDS011;58897;51.960;5.582;2024-03-23T08:13:14;6.20;;;2.47;;
12986;SDS011;58897;51.960;5.582;2024-03-23T08:15:39;5.55;;;2.53;;
12986;SDS011;58897;51.960;5.582;2024-03-23T08:18:05;11.90;;;2.50;;
12986;SDS011;58897;51.960;5.582;2024-03-23T08:20:31;5.10;;;1.60;;
12986;SDS011;58897;51.960;5.582;2024-03-23T08:22:57;3.53;;;1.90;;
12986;SDS011;58897;51.960;5.582;2024-03-23T08:25:22;5.22;;;2.13;;
12986;SDS011;58897;51.960;5.582;2024-03-23T08:27:48;4.35;;;1.77;;
12986;SDS011;58897;51.960;5.582;2024-03-23T08:30:13;3.60;;;2.03;;
12986;SDS011;58897;51.960;5.582;2024-03-23T08:32:39;6.78;;;1.92;;
12986;SDS011;58897;51.960;5.582;2024-03-23T08:35:05;3.97;;;1.77;;
12986;SDS011;58897;51.960;5.582;2024-03-23T08:37:32;4.13;;;1.75;;
12986;SDS011;58897;51.960;5.582;2024-03-23T08:39:58;4.10;;;2.10;;
12986;SDS011;58897;51.960;5.582;2024-03-23T08:42:24;3.47;;;2.00;;
12986;SDS011;58897;51.960;5.582;2024-03-23T08:44:50;7.30;;;2.47;;
12986;SDS011;58897;51.960;5.582;2024-03-23T08:47:16;4.22;;;1.67;;
12986;SDS011;58897;51.960;5.582;2024-03-23T08:52:07;5.68;;;1.92;;
12986;SDS011;58897;51.960;5.582;2024-03-23T08:54:33;9.20;;;2.58;;
12986;SDS011;58897;51.960;5.582;2024-03-23T08:59:25;3.58;;;1.70;;
12986;SDS011;58897;51.960;5.582;2024-03-23T09:01:51;3.72;;;1.67;;
12986;SDS011;58897;51.960;5.582;2024-03-23T09:04:17;4.32;;;1.42;;
12986;SDS011;58897;51.960;5.582;2024-03-23T09:06:43;2.28;;;1.50;;
12986;SDS011;58897;51.960;5.582;2024-03-23T09:09:08;5.45;;;1.50;;
12986;SDS011;58897;51.960;5.582;2024-03-23T09:11:34;3.22;;;1.70;;
12986;SDS011;58897;51.960;5.582;2024-03-23T09:14:00;4.22;;;1.83;;
12986;SDS011;58897;51.960;5.582;2024-03-23T09:16:26;3.90;;;1.70;;
12986;SDS011;58897;51.960;5.582;2024-03-23T09:18:52;5.50;;;1.80;;
12986;SDS011;58897;51.960;5.582;2024-03-23T09:21:17;4.30;;;1.98;;
12986;SDS011;58897;51.960;5.582;2024-03-23T09:23:43;10.60;;;2.55;;
12986;SDS011;58897;51.960;5.582;2024-03-23T09:26:10;6.80;;;1.98;;
12986;SDS011;58897;51.960;5.582;2024-03-23T09:28:35;5.28;;;2.00;;
12986;SDS011;58897;51.960;5.582;2024-03-23T09:31:02;4.10;;;2.20;;
12986;SDS011;58897;51.960;5.582;2024-03-23T09:33:28;4.85;;;1.90;;
12986;SDS011;58897;51.960;5.582;2024-03-23T09:35:54;5.32;;;2.10;;
12986;SDS011;58897;51.960;5.582;2024-03-23T09:38:22;7.68;;;2.33;;
12986;SDS011;58897;51.960;5.582;2024-03-23T09:40:48;5.78;;;1.60;;
12986;SDS011;58897;51.960;5.582;2024-03-23T09:43:18;6.30;;;2.03;;
12986;SDS011;58897;51.960;5.582;2024-03-23T09:45:44;3.22;;;1.30;;
12986;SDS011;58897;51.960;5.582;2024-03-23T09:48:11;4.72;;;1.60;;
12986;SDS011;58897;51.960;5.582;2024-03-23T09:53:07;5.03;;;1.80;;
12986;SDS011;58897;51.960;5.582;2024-03-23T09:55:34;3.63;;;1.48;;
12986;SDS011;58897;51.960;5.582;2024-03-23T09:58:04;5.43;;;2.08;;
12986;SDS011;58897;51.960;5.582;2024-03-23T10:00:30;3.55;;;1.40;;
12986;SDS011;58897;51.960;5.582;2024-03-23T10:03:00;4.47;;;1.60;;
12986;SDS011;58897;51.960;5.582;2024-03-23T10:05:29;7.10;;;1.70;;
12986;SDS011;58897;51.960;5.582;2024-03-23T10:10:42;3.83;;;1.52;;
12986;SDS011;58897;51.960;5.582;2024-03-23T10:13:07;4.45;;;1.30;;
12986;SDS011;58897;51.960;5.582;2024-03-23T10:15:36;2.97;;;1.48;;
12986;SDS011;58897;51.960;5.582;2024-03-23T10:18:18;4.05;;;1.80;;
12986;SDS011;58897;51.960;5.582;2024-03-23T10:20:50;3.40;;;1.58;;
12986;SDS011;58897;51.960;5.582;2024-03-23T10:23:31;2.35;;;1.27;;
12986;SDS011;58897;51.960;5.582;2024-03-23T10:26:12;4.07;;;2.20;;
12986;SDS011;58897;51.960;5.582;2024-03-23T10:29:00;5.10;;;1.92;;
12986;SDS011;58897;51.960;5.582;2024-03-23T10:31:30;3.90;;;1.88;;
12986;SDS011;58897;51.960;5.582;2024-03-23T10:33:57;4.60;;;1.75;;
12986;SDS011;58897;51.960;5.582;2024-03-23T10:36:23;3.90;;;1.73;;
12986;SDS011;58897;51.960;5.582;2024-03-23T10:38:49;4.60;;;1.88;;
12986;SDS011;58897;51.960;5.582;2024-03-23T10:41:17;6.57;;;2.70;;
12986;SDS011;58897;51.960;5.582;2024-03-23T10:43:45;2.85;;;1.75;;
12986;SDS011;58897;51.960;5.582;2024-03-23T10:46:11;5.13;;;2.42;;
12986;SDS011;58897;51.960;5.582;2024-03-23T10:51:03;5.10;;;1.60;;
12986;SDS011;58897;51.960;5.582;2024-03-23T10:53:32;7.30;;;2.03;;
12986;SDS011;58897;51.960;5.582;2024-03-23T10:55:59;5.05;;;1.70;;
12986;SDS011;58897;51.960;5.582;2024-03-23T11:01:10;4.57;;;2.10;;
12986;SDS011;58897;51.960;5.582;2024-03-23T11:03:37;7.07;;;1.70;;
12986;SDS011;58897;51.960;5.582;2024-03-23T11:06:06;2.53;;;1.45;;
12986;SDS011;58897;51.960;5.582;2024-03-23T11:13:37;8.85;;;1.92;;
12986;SDS011;58897;51.960;5.582;2024-03-23T11:18:39;7.57;;;2.05;;
12986;SDS011;58897;51.960;5.582;2024-03-23T11:23:31;3.63;;;1.38;;
12986;SDS011;58897;51.960;5.582;2024-03-23T11:28:23;3.47;;;1.75;;
12986;SDS011;58897;51.960;5.582;2024-03-23T11:33:14;3.15;;;1.45;;
12986;SDS011;58897;51.960;5.582;2024-03-23T11:35:40;2.90;;;1.48;;
12986;SDS011;58897;51.960;5.582;2024-03-23T11:38:16;4.25;;;1.30;;
12986;SDS011;58897;51.960;5.582;2024-03-23T11:40:47;3.80;;;1.33;;
12986;SDS011;58897;51.960;5.582;2024-03-23T11:43:15;5.00;;;1.80;;
12986;SDS011;58897;51.960;5.582;2024-03-23T11:45:45;3.67;;;1.33;;
12986;SDS011;58897;51.960;5.582;2024-03-23T11:48:20;3.50;;;1.55;;
12986;SDS011;58897;51.960;5.582;2024-03-23T11:50:48;7.50;;;1.88;;
12986;SDS011;58897;51.960;5.582;2024-03-23T11:53:18;5.38;;;1.88;;
12986;SDS011;58897;51.960;5.582;2024-03-23T11:55:49;4.50;;;2.00;;
12986;SDS011;58897;51.960;5.582;2024-03-23T11:58:19;7.57;;;1.90;;
12986;SDS011;58897;51.960;5.582;2024-03-23T12:00:54;2.85;;;1.50;;
12986;SDS011;58897;51.960;5.582;2024-03-23T12:03:22;5.38;;;1.40;;
12986;SDS011;58897;51.960;5.582;2024-03-23T12:05:51;3.63;;;1.95;;
12986;SDS011;58897;51.960;5.582;2024-03-23T12:10:50;5.50;;;1.73;;
12986;SDS011;58897;51.960;5.582;2024-03-23T12:13:18;8.65;;;2.95;;
12986;SDS011;58897;51.960;5.582;2024-03-23T12:15:45;2.55;;;1.55;;
12986;SDS011;58897;51.960;5.582;2024-03-23T12:18:11;4.85;;;1.85;;
12986;SDS011;58897;51.960;5.582;2024-03-23T12:20:37;3.92;;;1.40;;
12986;SDS011;58897;51.960;5.582;2024-03-23T12:25:32;3.92;;;1.27;;
12986;SDS011;58897;51.960;5.582;2024-03-23T12:28:01;5.43;;;1.50;;
12986;SDS011;58897;51.960;5.582;2024-03-23T12:30:27;4.43;;;1.60;;
12986;SDS011;58897;51.960;5.582;2024-03-23T12:35:19;4.45;;;1.70;;
12986;SDS011;58897;51.960;5.582;2024-03-23T12:40:10;3.92;;;1.75;;
12986;SDS011;58897;51.960;5.582;2024-03-23T12:42:36;2.65;;;1.38;;
12986;SDS011;58897;51.960;5.582;2024-03-23T12:47:30;3.90;;;1.83;;
12986;SDS011;58897;51.960;5.582;2024-03-23T12:49:55;9.10;;;1.60;;
12986;SDS011;58897;51.960;5.582;2024-03-23T12:54:49;6.03;;;1.80;;
12986;SDS011;58897;51.960;5.582;2024-03-23T12:59:40;4.70;;;1.35;;
12986;SDS011;58897;51.960;5.582;2024-03-23T13:02:06;4.00;;;1.80;;
12986;SDS011;58897;51.960;5.582;2024-03-23T13:04:32;3.67;;;1.42;;
12986;SDS011;58897;51.960;5.582;2024-03-23T13:06:58;6.18;;;2.40;;
12986;SDS011;58897;51.960;5.582;2024-03-23T13:11:49;4.20;;;1.75;;
12986;SDS011;58897;51.960;5.582;2024-03-23T13:14:14;4.22;;;2.17;;
12986;SDS011;58897;51.960;5.582;2024-03-23T13:16:42;4.93;;;1.50;;
12986;SDS011;58897;51.960;5.582;2024-03-23T13:19:07;4.97;;;1.70;;
12986;SDS011;58897;51.960;5.582;2024-03-23T13:23:58;5.32;;;1.67;;
12986;SDS011;58897;51.960;5.582;2024-03-23T13:26:24;3.78;;;1.42;;
12986;SDS011;58897;51.960;5.582;2024-03-23T13:28:50;5.07;;;1.60;;
12986;SDS011;58897;51.960;5.582;2024-03-23T13:33:41;2.75;;;1.52;;
12986;SDS011;58897;51.960;5.582;2024-03-23T13:36:09;3.58;;;1.80;;
12986;SDS011;58897;51.960;5.582;2024-03-23T13:38:34;7.50;;;2.55;;
12986;SDS011;58897;51.960;5.582;2024-03-23T13:43:27;7.72;;;1.85;;
12986;SDS011;58897;51.960;5.582;2024-03-23T13:45:56;5.68;;;1.55;;
12986;SDS011;58897;51.960;5.582;2024-03-23T13:48:23;4.70;;;1.75;;
12986;SDS011;58897;51.960;5.582;2024-03-23T13:50:56;5.75;;;1.33;;
12986;SDS011;58897;51.960;5.582;2024-03-23T13:53:23;4.22;;;1.67;;
12986;SDS011;58897;51.960;5.582;2024-03-23T13:55:49;5.38;;;1.58;;
12986;SDS011;58897;51.960;5.582;2024-03-23T13:58:15;2.45;;;1.27;;
12986;SDS011;58897;51.960;5.582;2024-03-23T14:00:41;3.72;;;1.50;;
12986;SDS011;58897;51.960;5.582;2024-03-23T14:03:10;4.50;;;1.58;;
12986;SDS011;58897;51.960;5.582;2024-03-23T14:05:36;2.50;;;1.30;;
12986;SDS011;58897;51.960;5.582;2024-03-23T14:08:09;5.20;;;1.52;;
12986;SDS011;58897;51.960;5.582;2024-03-23T14:10:35;8.18;;;1.83;;
12986;SDS011;58897;51.960;5.582;2024-03-23T14:13:02;5.07;;;1.65;;
12986;SDS011;58897;51.960;5.582;2024-03-23T14:15:31;6.25;;;1.90;;
12986;SDS011;58897;51.960;5.582;2024-03-23T14:17:57;5.10;;;1.58;;
12986;SDS011;58897;51.960;5.582;2024-03-23T14:20:22;8.73;;;1.83;;
12986;SDS011;58897;51.960;5.582;2024-03-23T14:22:49;3.72;;;1.55;;
12986;SDS011;58897;51.960;5.582;2024-03-23T14:27:40;2.75;;;1.50;;
12986;SDS011;58897;51.960;5.582;2024-03-23T14:30:06;3.53;;;1.80;;
12986;SDS011;58897;51.960;5.582;2024-03-23T14:32:32;2.33;;;1.30;;
12986;SDS011;58897;51.960;5.582;2024-03-23T14:35:00;6.35;;;1.58;;
12986;SDS011;58897;51.960;5.582;2024-03-23T14:37:26;2.78;;;1.67;;
12986;SDS011;58897;51.960;5.582;2024-03-23T14:39:52;2.08;;;1.25;;
12986;SDS011;58897;51.960;5.582;2024-03-23T14:42:18;5.38;;;1.40;;
12986;SDS011;58897;51.960;5.582;2024-03-23T14:44:44;5.35;;;2.00;;
12986;SDS011;58897;51.960;5.582;2024-03-23T14:47:09;7.30;;;2.25;;
12986;SDS011;58897;51.960;5.582;2024-03-23T14:49:35;3.08;;;1.60;;
12986;SDS011;58897;51.960;5.582;2024-03-23T14:54:26;4.85;;;1.40;;
12986;SDS011;58897;51.960;5.582;2024-03-23T14:56:52;4.68;;;2.17;;
12986;SDS011;58897;51.960;5.582;2024-03-23T14:59:18;5.95;;;2.42;;
12986;SDS011;58897;51.960;5.582;2024-03-23T15:01:45;4.13;;;1.42;;
12986;SDS011;58897;51.960;5.582;2024-03-23T15:04:10;6.53;;;1.77;;
12986;SDS011;58897;51.960;5.582;2024-03-23T15:06:36;4.28;;;1.45;;
12986;SDS011;58897;51.960;5.582;2024-03-23T15:09:01;7.03;;;1.35;;
12986;SDS011;58897;51.960;5.582;2024-03-23T15:11:32;5.38;;;2.13;;
12986;SDS011;58897;51.960;5.582;2024-03-23T15:13:57;2.33;;;1.45;;
12986;SDS011;58897;51.960;5.582;2024-03-23T15:16:23;5.07;;;1.50;;
12986;SDS011;58897;51.960;5.582;2024-03-23T15:18:49;6.63;;;2.10;;
12986;SDS011;58897;51.960;5.582;2024-03-23T15:21:15;5.38;;;1.98;;
12986;SDS011;58897;51.960;5.582;2024-03-23T15:23:45;6.10;;;1.65;;
12986;SDS011;58897;51.960;5.582;2024-03-23T15:26:11;4.28;;;1.30;;
12986;SDS011;58897;51.960;5.582;2024-03-23T15:28:36;3.08;;;1.50;;
12986;SDS011;58897;51.960;5.582;2024-03-23T15:31:20;3.15;;;1.23;;
12986;SDS011;58897;51.960;5.582;2024-03-23T15:33:46;1.60;;;0.90;;
12986;SDS011;58897;51.960;5.582;2024-03-23T15:36:12;1.90;;;0.95;;
12986;SDS011;58897;51.960;5.582;2024-03-23T15:38:37;3.35;;;1.35;;
12986;SDS011;58897;51.960;5.582;2024-03-23T15:41:06;3.03;;;1.27;;
12986;SDS011;58897;51.960;5.582;2024-03-23T15:43:31;3.08;;;1.40;;
12986;SDS011;58897;51.960;5.582;2024-03-23T15:45:57;3.05;;;0.98;;
12986;SDS011;58897;51.960;5.582;2024-03-23T15:48:27;1.85;;;0.98;;
12986;SDS011;58897;51.960;5.582;2024-03-23T15:50:54;5.60;;;1.65;;
12986;SDS011;58897;51.960;5.582;2024-03-23T15:53:21;2.55;;;1.60;;
12986;SDS011;58897;51.960;5.582;2024-03-23T15:55:53;2.08;;;0.95;;
12986;SDS011;58897;51.960;5.582;2024-03-23T15:58:22;1.90;;;1.00;;
12986;SDS011;58897;51.960;5.582;2024-03-23T16:00:58;2.15;;;1.33;;
12986;SDS011;58897;51.960;5.582;2024-03-23T16:03:28;4.03;;;1.60;;
12986;SDS011;58897;51.960;5.582;2024-03-23T16:05:57;2.25;;;1.15;;
12986;SDS011;58897;51.960;5.582;2024-03-23T16:08:23;1.67;;;1.00;;
12986;SDS011;58897;51.960;5.582;2024-03-23T16:10:50;1.67;;;1.05;;
12986;SDS011;58897;51.960;5.582;2024-03-23T16:13:16;5.30;;;1.70;;
12986;SDS011;58897;51.960;5.582;2024-03-23T16:15:43;1.88;;;1.02;;
12986;SDS011;58897;51.960;5.582;2024-03-23T16:18:09;2.13;;;1.10;;
12986;SDS011;58897;51.960;5.582;2024-03-23T16:20:34;4.35;;;1.23;;
12986;SDS011;58897;51.960;5.582;2024-03-23T16:23:00;4.32;;;1.38;;
12986;SDS011;58897;51.960;5.582;2024-03-23T16:25:26;3.53;;;1.48;;
12986;SDS011;58897;51.960;5.582;2024-03-23T16:27:52;1.77;;;1.02;;
12986;SDS011;58897;51.960;5.582;2024-03-23T16:30:18;2.50;;;1.10;;
12986;SDS011;58897;51.960;5.582;2024-03-23T16:32:46;1.58;;;1.08;;
12986;SDS011;58897;51.960;5.582;2024-03-23T16:35:12;2.17;;;1.10;;
12986;SDS011;58897;51.960;5.582;2024-03-23T16:37:38;1.73;;;0.93;;
12986;SDS011;58897;51.960;5.582;2024-03-23T16:40:04;2.38;;;1.13;;
12986;SDS011;58897;51.960;5.582;2024-03-23T16:42:35;1.73;;;0.75;;
12986;SDS011;58897;51.960;5.582;2024-03-23T16:45:01;2.20;;;1.10;;
12986;SDS011;58897;51.960;5.582;2024-03-23T16:47:27;2.05;;;1.13;;
12986;SDS011;58897;51.960;5.582;2024-03-23T16:49:53;2.65;;;1.23;;
12986;SDS011;58897;51.960;5.582;2024-03-23T16:52:19;1.38;;;0.80;;
12986;SDS011;58897;51.960;5.582;2024-03-23T16:54:44;2.17;;;0.90;;
12986;SDS011;58897;51.960;5.582;2024-03-23T16:57:10;1.80;;;0.93;;
12986;SDS011;58897;51.960;5.582;2024-03-23T16:59:35;3.63;;;1.20;;
12986;SDS011;58897;51.960;5.582;2024-03-23T17:02:01;6.18;;;1.35;;
12986;SDS011;58897;51.960;5.582;2024-03-23T17:04:27;8.07;;;1.50;;
12986;SDS011;58897;51.960;5.582;2024-03-23T17:06:52;1.77;;;0.82;;